Time;durP1;ratioP1;P1;durP2;ratioP2;P2;SDS_P1;SDS_P2;PMS_P1;PMS_P2;Temp;Humidity;BMP_temperature;BMP_pressure;BME280_temperature;BME280_humidity;BME280_pressure;Samples;Min_cycle;Max_cycle;Signal;HPM_P1;HPM_P2
2023/01/10 00:02:07;;;;;;;;;;;6.20;99.90;;;;;;5050836;28;19966;-77
2023/01/10 00:04:32;;;;;;;;;;;6.30;99.90;;;;;;5050280;28;19909;-77
2023/01/10 00:06:58;;;;;;;;;;;6.30;99.90;;;;;;5054750;28;20196;-76
2023/01/10 00:09:24;;;;;;;;;;;6.30;99.90;;;;;;5061211;28;20054;-76
2023/01/10 00:14:34;;;;;;;;;;;6.30;99.90;;;;;;5073535;28;20241;-77
2023/01/10 00:17:00;;;;;;;;;;;6.30;99.90;;;;;;5074014;28;20000;-76
2023/01/10 00:19:26;;;;;;;;;;;6.40;99.90;;;;;;5073869;28;20264;-82
2023/01/10 00:21:52;;;;;;;;;;;6.40;99.90;;;;;;5073963;28;19916;-77
2023/01/10 00:24:17;;;;;;;;;;;6.40;99.90;;;;;;5074011;28;19962;-77
2023/01/10 00:26:45;;;;;;;;;;;6.40;99.90;;;;;;5073822;28;19909;-77
2023/01/10 00:29:11;;;;;;;;;;;6.40;99.90;;;;;;5073629;28;19974;-78
2023/01/10 00:31:36;;;;;;;;;;;6.40;99.90;;;;;;5073336;28;20381;-77
2023/01/10 00:34:02;;;;;;;;;;;6.40;99.90;;;;;;5074405;28;19913;-81
2023/01/10 00:36:27;;;;;;;;;;;6.50;99.90;;;;;;5073753;28;20376;-79
2023/01/10 00:38:53;;;;;;;;;;;6.50;99.90;;;;;;5073590;28;19909;-78
2023/01/10 00:44:05;;;;;;;;;;;6.50;99.90;;;;;;5073586;28;20257;-77
2023/01/10 00:46:31;;;;;;;;;;;6.50;99.90;;;;;;5072725;28;19913;-77
2023/01/10 00:48:56;;;;;;;;;;;6.60;99.90;;;;;;5073453;28;20376;-77
2023/01/10 00:51:22;;;;;;;;;;;6.70;99.90;;;;;;5073352;28;19942;-79
2023/01/10 00:53:47;;;;;;;;;;;6.70;99.90;;;;;;5072926;28;19905;-76
2023/01/10 00:56:13;;;;;;;;;;;6.80;99.90;;;;;;5073328;28;20290;-76
2023/01/10 00:58:38;;;;;;;;;;;6.90;99.90;;;;;;5072875;28;19962;-77
2023/01/10 01:01:04;;;;;;;;;;;6.90;99.90;;;;;;5073672;28;19919;-77
2023/01/10 01:03:30;;;;;;;;;;;6.90;99.90;;;;;;5073189;28;20008;-78
2023/01/10 01:05:55;;;;;;;;;;;7.00;99.90;;;;;;5072293;28;20006;-76
2023/01/10 01:08:21;;;;;;;;;;;7.00;99.90;;;;;;5073628;28;19916;-77
2023/01/10 01:10:47;;;;;;;;;;;7.10;99.90;;;;;;5072519;28;20452;-76
2023/01/10 01:13:14;;;;;;;;;;;7.20;99.90;;;;;;5072727;28;19913;-77
2023/01/10 01:15:40;;;;;;;;;;;7.30;99.90;;;;;;5075935;28;19909;-77
2023/01/10 01:18:05;;;;;;;;;;;7.40;99.90;;;;;;5091349;28;19909;-77
2023/01/10 01:20:31;;;;;;;;;;;7.50;99.90;;;;;;5080826;28;19962;-78
2023/01/10 01:22:57;;;;;;;;;;;7.60;99.90;;;;;;5083966;28;19932;-77
2023/01/10 01:25:22;;;;;;;;;;;7.60;99.90;;;;;;5083890;28;19918;-79
2023/01/10 01:27:48;;;;;;;;;;;7.60;99.90;;;;;;5084546;28;19920;-78
2023/01/10 01:30:14;;;;;;;;;;;7.60;99.90;;;;;;5080094;28;19908;-77
2023/01/10 01:32:40;;;;;;;;;;;7.50;99.90;;;;;;5072019;28;19909;-78
2023/01/10 01:35:06;;;;;;;;;;;7.50;99.90;;;;;;5072627;28;20285;-77
2023/01/10 01:37:32;;;;;;;;;;;7.50;99.90;;;;;;5072120;28;20298;-78
2023/01/10 01:39:58;;;;;;;;;;;7.50;99.90;;;;;;5072548;28;19912;-77
2023/01/10 01:42:25;;;;;;;;;;;7.40;99.90;;;;;;5072280;28;20423;-77
2023/01/10 01:45:12;;;;;;;;;;;7.50;99.90;;;;;;5071730;28;19916;-77
2023/01/10 01:47:59;;;;;;;;;;;7.40;99.90;;;;;;5071890;28;19908;-76
2023/01/10 01:50:26;;;;;;;;;;;7.50;99.90;;;;;;5072624;28;20342;-80
2023/01/10 01:52:53;;;;;;;;;;;7.50;99.90;;;;;;5071945;28;19916;-78
2023/01/10 01:55:20;;;;;;;;;;;7.60;99.90;;;;;;5072964;28;20007;-78
2023/01/10 01:57:46;;;;;;;;;;;7.70;99.90;;;;;;5071034;28;19909;-78
2023/01/10 02:00:13;;;;;;;;;;;7.70;99.90;;;;;;5073052;28;19917;-78
2023/01/10 02:02:42;;;;;;;;;;;7.80;99.90;;;;;;5072357;28;19916;-78
2023/01/10 02:05:09;;;;;;;;;;;7.80;99.90;;;;;;5073384;28;20326;-78
2023/01/10 02:07:39;;;;;;;;;;;7.90;99.90;;;;;;5072791;28;19909;-79
2023/01/10 02:10:27;;;;;;;;;;;7.90;99.90;;;;;;5072729;28;19909;-78
2023/01/10 02:12:54;;;;;;;;;;;7.90;99.90;;;;;;5072553;28;19958;-78
2023/01/10 02:15:19;;;;;;;;;;;7.90;99.90;;;;;;5072398;28;20353;-78
2023/01/10 02:17:49;;;;;;;;;;;7.90;99.90;;;;;;5072447;28;19935;-77
2023/01/10 02:20:16;;;;;;;;;;;7.90;99.90;;;;;;5072798;28;19912;-77
2023/01/10 02:22:44;;;;;;;;;;;7.80;99.90;;;;;;5072108;28;19916;-78
2023/01/10 02:25:28;;;;;;;;;;;7.80;99.90;;;;;;5072627;28;19912;-78
2023/01/10 02:27:54;;;;;;;;;;;7.70;99.90;;;;;;5072073;28;19908;-79
2023/01/10 02:30:23;;;;;;;;;;;7.60;99.90;;;;;;5072507;28;19916;-79
2023/01/10 02:32:51;;;;;;;;;;;7.60;99.90;;;;;;5071031;28;19985;-78
2023/01/10 02:35:23;;;;;;;;;;;7.60;99.90;;;;;;5072196;28;19920;-79
2023/01/10 02:37:51;;;;;;;;;;;7.50;99.90;;;;;;5071137;28;20373;-79
2023/01/10 02:40:26;;;;;;;;;;;7.50;99.90;;;;;;5071515;28;19916;-79
2023/01/10 02:42:51;;;;;;;;;;;7.40;99.90;;;;;;5071237;28;20690;-79
2023/01/10 02:45:24;;;;;;;;;;;7.40;99.90;;;;;;5071544;28;19915;-79
2023/01/10 02:47:50;;;;;;;;;;;7.40;99.90;;;;;;5071325;28;19912;-80
2023/01/10 02:50:26;;;;;;;;;;;7.40;99.90;;;;;;5070256;28;20053;-79
2023/01/10 02:52:52;;;;;;;;;;;7.40;99.90;;;;;;5071268;28;19929;-81
2023/01/10 02:55:18;;;;;;;;;;;7.30;99.90;;;;;;5071886;28;19962;-81
2023/01/10 02:57:50;;;;;;;;;;;7.30;99.90;;;;;;5071134;28;20011;-81
2023/01/10 03:00:20;;;;;;;;;;;7.20;99.90;;;;;;5071120;28;19916;-79
2023/01/10 03:03:04;;;;;;;;;;;7.20;99.90;;;;;;5070771;28;19920;-81
2023/01/10 03:05:30;;;;;;;;;;;7.20;99.90;;;;;;5071285;28;20444;-82
2023/01/10 03:08:14;;;;;;;;;;;7.20;99.90;;;;;;5070634;28;19999;-84
2023/01/10 03:10:47;;;;;;;;;;;7.10;99.90;;;;;;5071225;28;19947;-83
2023/01/10 03:13:16;;;;;;;;;;;7.10;99.90;;;;;;5071786;28;19909;-80
2023/01/10 03:15:43;;;;;;;;;;;7.10;99.90;;;;;;5070921;28;19917;-81
2023/01/10 03:18:15;;;;;;;;;;;7.00;99.90;;;;;;5071626;28;19924;-82
2023/01/10 03:20:41;;;;;;;;;;;7.00;99.90;;;;;;5071359;28;19958;-83
2023/01/10 03:23:08;;;;;;;;;;;7.00;99.90;;;;;;5070378;28;20419;-83
2023/01/10 03:25:35;;;;;;;;;;;6.90;99.90;;;;;;5071522;28;19909;-83
2023/01/10 03:28:06;;;;;;;;;;;6.90;99.90;;;;;;5071112;28;20362;-84
2023/01/10 03:30:41;;;;;;;;;;;6.90;99.90;;;;;;5071604;28;19918;-80
2023/01/10 03:33:07;;;;;;;;;;;6.90;99.90;;;;;;5071317;28;19908;-79
2023/01/10 03:35:42;;;;;;;;;;;6.80;99.90;;;;;;5071405;28;19915;-84
2023/01/10 03:38:12;;;;;;;;;;;6.80;99.90;;;;;;5071355;28;19909;-81
2023/01/10 03:40:46;;;;;;;;;;;6.80;99.90;;;;;;5071259;28;20045;-87
2023/01/10 03:46:47;;;;;;;;;;;6.80;99.90;;;;;;5071357;28;20018;-79
2023/01/10 03:49:14;;;;;;;;;;;6.90;99.90;;;;;;5056218;28;19916;-79
2023/01/10 03:51:39;;;;;;;;;;;6.90;99.90;;;;;;5069315;28;20046;-81
2023/01/10 03:54:05;;;;;;;;;;;6.90;99.90;;;;;;5070750;28;20341;-80
2023/01/10 03:56:41;;;;;;;;;;;6.90;99.90;;;;;;5069307;28;19923;-79
2023/01/10 03:59:07;;;;;;;;;;;7.00;99.90;;;;;;5070820;28;19930;-79
2023/01/10 04:01:33;;;;;;;;;;;7.00;99.90;;;;;;5070676;28;20258;-81
2023/01/10 04:03:58;;;;;;;;;;;7.00;99.90;;;;;;5070332;28;19995;-80
2023/01/10 04:06:24;;;;;;;;;;;7.00;99.90;;;;;;5070861;28;20279;-81
2023/01/10 04:08:49;;;;;;;;;;;7.00;99.90;;;;;;5070452;28;19909;-81
2023/01/10 04:11:15;;;;;;;;;;;6.90;99.90;;;;;;5071027;28;20361;-81
2023/01/10 04:13:41;;;;;;;;;;;6.90;99.90;;;;;;5070102;28;19951;-82
2023/01/10 04:16:07;;;;;;;;;;;6.80;99.90;;;;;;5071159;28;19909;-80
2023/01/10 04:18:32;;;;;;;;;;;6.80;99.90;;;;;;5070872;28;20226;-81
2023/01/10 04:20:58;;;;;;;;;;;6.80;99.90;;;;;;5070612;28;19912;-81
2023/01/10 04:23:23;;;;;;;;;;;6.80;99.90;;;;;;5070946;28;19913;-80
2023/01/10 04:25:49;;;;;;;;;;;6.90;99.90;;;;;;5070010;28;20382;-80
2023/01/10 04:28:14;;;;;;;;;;;7.00;99.90;;;;;;5069561;28;19908;-83
2023/01/10 04:30:40;;;;;;;;;;;7.00;99.90;;;;;;5070709;28;19915;-87
2023/01/10 04:33:06;;;;;;;;;;;7.00;99.90;;;;;;5070573;28;20284;-79
2023/01/10 04:35:31;;;;;;;;;;;7.00;99.90;;;;;;5069520;28;19935;-79
2023/01/10 04:37:57;;;;;;;;;;;7.10;99.90;;;;;;5068793;28;19916;-80
2023/01/10 04:40:22;;;;;;;;;;;7.20;99.90;;;;;;5070624;28;19912;-80
2023/01/10 04:42:48;;;;;;;;;;;7.10;99.90;;;;;;5070033;28;19919;-80
2023/01/10 04:45:16;;;;;;;;;;;7.20;99.90;;;;;;5070685;28;20281;-80
2023/01/10 04:47:42;;;;;;;;;;;7.30;99.90;;;;;;5070267;28;19966;-87
2023/01/10 04:50:08;;;;;;;;;;;7.40;99.90;;;;;;5070790;28;19909;-82
2023/01/10 04:52:33;;;;;;;;;;;7.50;99.90;;;;;;5070709;28;20250;-80
2023/01/10 04:54:59;;;;;;;;;;;7.60;99.90;;;;;;5071732;28;19909;-79
2023/01/10 04:57:24;;;;;;;;;;;7.60;99.90;;;;;;5074241;28;20247;-79
2023/01/10 04:59:50;;;;;;;;;;;7.80;99.90;;;;;;5073632;28;19936;-79
2023/01/10 05:02:15;;;;;;;;;;;7.80;99.90;;;;;;5072484;28;19924;-78
2023/01/10 05:04:41;;;;;;;;;;;7.80;99.90;;;;;;5073633;28;20300;-85
2023/01/10 05:07:06;;;;;;;;;;;7.90;99.90;;;;;;5074035;28;19958;-79
2023/01/10 05:09:32;;;;;;;;;;;7.90;99.90;;;;;;5073801;28;19915;-79
2023/01/10 05:11:58;;;;;;;;;;;8.00;99.90;;;;;;5073853;28;20273;-79
2023/01/10 05:14:23;;;;;;;;;;;8.00;99.90;;;;;;5072538;28;20022;-80
2023/01/10 05:16:49;;;;;;;;;;;8.10;99.90;;;;;;5072047;28;20315;-82
2023/01/10 05:19:16;;;;;;;;;;;8.10;99.90;;;;;;5073563;28;20285;-83
2023/01/10 05:21:42;;;;;;;;;;;8.20;99.90;;;;;;5073841;28;20007;-84
2023/01/10 05:24:08;;;;;;;;;;;8.20;99.90;;;;;;5073288;28;19909;-83
2023/01/10 05:26:33;;;;;;;;;;;8.30;99.90;;;;;;5074228;28;19916;-83
2023/01/10 05:28:59;;;;;;;;;;;8.30;99.90;;;;;;5073405;28;20269;-82
2023/01/10 05:31:25;;;;;;;;;;;8.40;99.90;;;;;;5074511;28;20039;-81
2023/01/10 05:33:50;;;;;;;;;;;8.40;99.90;;;;;;5073701;28;20347;-82
2023/01/10 05:36:16;;;;;;;;;;;8.50;99.90;;;;;;5073900;28;19926;-84
2023/01/10 05:38:42;;;;;;;;;;;8.50;99.90;;;;;;5073492;28;19913;-83
2023/01/10 05:41:07;;;;;;;;;;;8.60;99.90;;;;;;5072904;28;19951;-83
2023/01/10 05:43:33;;;;;;;;;;;8.70;99.90;;;;;;5073649;28;19920;-80
2023/01/10 05:45:59;;;;;;;;;;;8.70;99.90;;;;;;5073071;28;19969;-80
2023/01/10 05:48:24;;;;;;;;;;;8.70;99.90;;;;;;5072135;28;19908;-79
2023/01/10 05:50:50;;;;;;;;;;;8.70;99.90;;;;;;5071559;28;19966;-81
2023/01/10 05:53:17;;;;;;;;;;;8.70;99.90;;;;;;5073592;28;19978;-81
2023/01/10 05:55:42;;;;;;;;;;;8.80;99.90;;;;;;5072263;28;19964;-80
2023/01/10 05:58:10;;;;;;;;;;;8.80;99.90;;;;;;5073672;28;20009;-83
2023/01/10 06:00:35;;;;;;;;;;;8.90;99.90;;;;;;5074062;28;19956;-82
2023/01/10 06:03:01;;;;;;;;;;;8.90;99.90;;;;;;5073361;28;20406;-84
2023/01/10 06:05:27;;;;;;;;;;;9.00;99.90;;;;;;5072411;28;20014;-82
2023/01/10 06:07:52;;;;;;;;;;;9.00;99.90;;;;;;5073392;28;19909;-83
2023/01/10 06:10:18;;;;;;;;;;;9.10;99.90;;;;;;5073887;28;20336;-84
2023/01/10 06:12:43;;;;;;;;;;;9.10;99.90;;;;;;5084712;28;19964;-82
2023/01/10 06:15:09;;;;;;;;;;;9.10;99.90;;;;;;5089451;28;19920;-81
2023/01/10 06:17:35;;;;;;;;;;;9.20;99.90;;;;;;5082921;28;19909;-80
2023/01/10 06:20:01;;;;;;;;;;;9.20;99.90;;;;;;5084511;28;19907;-80
2023/01/10 06:22:27;;;;;;;;;;;9.30;99.90;;;;;;5088841;28;19986;-82
2023/01/10 06:24:53;;;;;;;;;;;9.40;99.90;;;;;;5078900;28;19912;-80
2023/01/10 06:27:19;;;;;;;;;;;9.40;99.90;;;;;;5088606;28;19919;-80
2023/01/10 06:29:44;;;;;;;;;;;9.50;99.90;;;;;;5092012;28;19900;-79
2023/01/10 06:32:10;;;;;;;;;;;9.50;99.90;;;;;;5085550;28;19916;-82
2023/01/10 06:34:36;;;;;;;;;;;9.50;99.90;;;;;;5074525;28;20007;-83
2023/01/10 06:37:01;;;;;;;;;;;9.50;99.90;;;;;;5079645;28;19913;-82
2023/01/10 06:39:27;;;;;;;;;;;9.70;99.90;;;;;;5080003;28;19912;-80
2023/01/10 06:41:52;;;;;;;;;;;9.60;99.90;;;;;;5076678;28;19935;-81
2023/01/10 06:44:18;;;;;;;;;;;9.80;99.90;;;;;;5076547;28;19962;-81
2023/01/10 06:46:43;;;;;;;;;;;9.90;99.90;;;;;;5077719;28;19909;-80
2023/01/10 06:49:09;;;;;;;;;;;10.10;99.90;;;;;;5074745;28;20533;-81
2023/01/10 06:51:34;;;;;;;;;;;10.10;99.90;;;;;;5074971;28;19920;-81
2023/01/10 06:54:00;;;;;;;;;;;10.20;99.90;;;;;;5074807;28;19920;-82
2023/01/10 06:56:26;;;;;;;;;;;10.30;99.90;;;;;;5075776;28;19908;-81
2023/01/10 06:58:51;;;;;;;;;;;10.40;99.90;;;;;;5074952;28;19913;-84
2023/01/10 07:01:18;;;;;;;;;;;10.40;99.90;;;;;;5076159;28;19913;-82
2023/01/10 07:03:44;;;;;;;;;;;10.50;99.90;;;;;;5074987;28;19938;-82
2023/01/10 07:06:10;;;;;;;;;;;10.50;99.90;;;;;;5073442;28;20569;-81
2023/01/10 07:08:39;;;;;;;;;;;10.50;99.90;;;;;;5073797;28;19912;-82
2023/01/10 07:11:06;;;;;;;;;;;10.50;99.90;;;;;;5073797;28;19935;-82
2023/01/10 07:13:31;;;;;;;;;;;10.70;99.90;;;;;;5074861;28;19908;-82
2023/01/10 07:16:15;;;;;;;;;;;10.60;99.90;;;;;;5073910;28;20292;-82
2023/01/10 07:18:41;;;;;;;;;;;10.60;99.90;;;;;;5074744;28;19908;-82
2023/01/10 07:21:07;;;;;;;;;;;10.70;99.90;;;;;;5074352;28;19913;-81
2023/01/10 07:23:33;;;;;;;;;;;10.80;99.90;;;;;;5073850;28;20000;-81
2023/01/10 07:26:03;;;;;;;;;;;10.80;99.90;;;;;;5073780;28;19966;-82
2023/01/10 07:28:28;;;;;;;;;;;10.90;99.90;;;;;;5073552;28;19909;-81
2023/01/10 07:30:56;;;;;;;;;;;11.00;99.90;;;;;;5073225;28;20397;-84
2023/01/10 07:33:22;;;;;;;;;;;11.00;99.90;;;;;;5072943;28;20043;-82
2023/01/10 07:35:47;;;;;;;;;;;11.10;99.90;;;;;;5073086;28;19912;-83
2023/01/10 07:38:13;;;;;;;;;;;11.20;99.90;;;;;;5072320;28;19909;-83
2023/01/10 07:40:39;;;;;;;;;;;11.30;99.90;;;;;;5073535;28;20261;-82
2023/01/10 07:43:04;;;;;;;;;;;11.30;99.90;;;;;;5073526;28;19921;-83
2023/01/10 07:45:30;;;;;;;;;;;11.30;99.90;;;;;;5073205;28;19955;-83
2023/01/10 07:47:59;;;;;;;;;;;11.40;99.90;;;;;;5072512;28;20360;-84
2023/01/10 07:50:25;;;;;;;;;;;11.40;99.90;;;;;;5071984;28;19953;-82
2023/01/10 07:52:51;;;;;;;;;;;11.40;99.90;;;;;;5072394;28;19995;-81
2023/01/10 07:55:17;;;;;;;;;;;11.50;99.90;;;;;;5071786;28;19987;-81
2023/01/10 07:57:42;;;;;;;;;;;11.60;99.90;;;;;;5071813;28;19913;-81
2023/01/10 08:00:08;;;;;;;;;;;11.60;99.90;;;;;;5071543;28;19913;-80
2023/01/10 08:02:34;;;;;;;;;;;11.70;99.90;;;;;;5071564;28;19912;-80
2023/01/10 08:04:59;;;;;;;;;;;11.80;99.90;;;;;;5070917;28;20336;-81
2023/01/10 08:07:27;;;;;;;;;;;11.80;99.90;;;;;;5071629;28;19953;-80
2023/01/10 08:09:53;;;;;;;;;;;11.80;99.90;;;;;;5069748;28;19915;-80
2023/01/10 08:12:19;;;;;;;;;;;11.80;99.90;;;;;;5070799;28;19908;-81
2023/01/10 08:14:45;;;;;;;;;;;11.80;99.90;;;;;;5070841;28;19908;-79
2023/01/10 08:17:10;;;;;;;;;;;11.80;99.90;;;;;;5069217;28;19916;-80
2023/01/10 08:19:36;;;;;;;;;;;11.90;99.90;;;;;;5070263;28;20255;-80
2023/01/10 08:22:02;;;;;;;;;;;12.00;99.90;;;;;;5070405;28;19916;-81
2023/01/10 08:24:27;;;;;;;;;;;11.90;99.90;;;;;;5070634;28;19909;-80
2023/01/10 08:26:56;;;;;;;;;;;12.00;99.90;;;;;;5070812;28;19908;-80
2023/01/10 08:29:22;;;;;;;;;;;12.10;99.90;;;;;;5071433;28;19919;-79
2023/01/10 08:31:47;;;;;;;;;;;12.20;99.90;;;;;;5074804;28;19908;-79
2023/01/10 08:34:13;;;;;;;;;;;12.20;99.90;;;;;;5073749;28;19916;-79
2023/01/10 08:36:39;;;;;;;;;;;12.20;99.90;;;;;;5074357;28;20001;-79
2023/01/10 08:39:04;;;;;;;;;;;12.10;99.90;;;;;;5073607;28;19912;-80
2023/01/10 08:41:30;;;;;;;;;;;12.10;99.90;;;;;;5074087;28;20015;-79
2023/01/10 08:43:55;;;;;;;;;;;12.20;99.90;;;;;;5073961;28;19912;-80
2023/01/10 08:46:21;;;;;;;;;;;12.20;99.90;;;;;;5073487;28;19912;-80
2023/01/10 08:48:49;;;;;;;;;;;12.20;99.90;;;;;;5065942;28;19913;-79
2023/01/10 08:51:15;;;;;;;;;;;12.20;99.90;;;;;;5061865;28;20015;-80
2023/01/10 08:53:41;;;;;;;;;;;12.20;99.90;;;;;;5066873;28;19943;-80
2023/01/10 08:56:06;;;;;;;;;;;12.10;99.90;;;;;;5073983;28;19909;-80
2023/01/10 08:58:32;;;;;;;;;;;12.10;99.90;;;;;;5074263;28;19931;-80
2023/01/10 09:00:58;;;;;;;;;;;12.00;99.90;;;;;;5074090;28;20483;-86
2023/01/10 09:03:23;;;;;;;;;;;12.00;99.90;;;;;;5073444;28;20010;-79
2023/01/10 09:05:49;;;;;;;;;;;12.00;99.90;;;;;;5073860;28;20045;-82
2023/01/10 09:08:14;;;;;;;;;;;12.00;99.90;;;;;;5073998;28;19916;-81
2023/01/10 09:10:40;;;;;;;;;;;12.20;99.90;;;;;;5073996;28;20057;-79
2023/01/10 09:13:06;;;;;;;;;;;12.20;99.90;;;;;;5074183;28;19909;-82
2023/01/10 09:15:33;;;;;;;;;;;12.20;99.90;;;;;;5073654;28;20424;-81
2023/01/10 09:18:00;;;;;;;;;;;12.20;99.90;;;;;;5073732;28;19915;-85
2023/01/10 09:20:27;;;;;;;;;;;12.30;99.90;;;;;;5072593;28;19919;-81
2023/01/10 09:22:53;;;;;;;;;;;12.30;99.90;;;;;;5073831;28;19983;-80
2023/01/10 09:25:18;;;;;;;;;;;12.30;99.90;;;;;;5073096;28;19971;-81
2023/01/10 09:27:44;;;;;;;;;;;12.30;99.90;;;;;;5073632;28;19922;-80
2023/01/10 09:30:10;;;;;;;;;;;12.30;99.90;;;;;;5072808;28;19999;-80
2023/01/10 09:32:36;;;;;;;;;;;12.40;99.90;;;;;;5072216;28;19974;-79
2023/01/10 09:35:02;;;;;;;;;;;12.40;99.90;;;;;;5072931;28;20352;-87
2023/01/10 09:37:27;;;;;;;;;;;12.50;99.90;;;;;;5063866;28;19929;-79
2023/01/10 09:39:53;;;;;;;;;;;12.50;99.90;;;;;;5063230;28;19924;-79
2023/01/10 09:42:44;;;;;;;;;;;12.50;99.90;;;;;;5061035;28;19917;-79
2023/01/10 09:45:14;;;;;;;;;;;12.50;99.90;;;;;;5044820;28;19952;-78
2023/01/10 09:47:54;;;;;;;;;;;12.60;99.90;;;;;;5053202;28;19913;-78
2023/01/10 09:50:27;;;;;;;;;;;12.60;99.90;;;;;;5052463;28;19909;-80
2023/01/10 09:52:55;;;;;;;;;;;12.60;99.90;;;;;;5052708;28;19916;-79
2023/01/10 09:55:34;;;;;;;;;;;12.60;99.90;;;;;;5052330;28;20764;-80
2023/01/10 09:58:02;;;;;;;;;;;12.60;99.90;;;;;;5052466;28;20328;-87
2023/01/10 10:00:40;;;;;;;;;;;12.60;99.90;;;;;;5058080;28;20056;-78
2023/01/10 10:03:16;;;;;;;;;;;12.60;99.90;;;;;;5061893;28;20259;-78
2023/01/10 10:05:42;;;;;;;;;;;12.60;99.90;;;;;;5061692;28;20404;-80
2023/01/10 10:08:12;;;;;;;;;;;12.60;99.90;;;;;;5065448;28;19912;-80
2023/01/10 10:10:48;;;;;;;;;;;12.50;99.90;;;;;;5059760;28;20431;-79
2023/01/10 10:13:22;;;;;;;;;;;12.50;99.90;;;;;;5060311;28;19987;-80
2023/01/10 10:15:53;;;;;;;;;;;12.50;99.90;;;;;;5056719;28;19913;-80
2023/01/10 10:18:21;;;;;;;;;;;12.60;99.90;;;;;;5061683;28;19916;-80
2023/01/10 10:20:55;;;;;;;;;;;12.60;99.90;;;;;;5062664;28;19912;-79
2023/01/10 10:23:26;;;;;;;;;;;12.70;99.90;;;;;;5071942;28;20003;-79
2023/01/10 10:25:52;;;;;;;;;;;12.80;99.90;;;;;;5071558;28;19958;-79
2023/01/10 10:28:20;;;;;;;;;;;12.80;99.90;;;;;;5072506;28;19947;-79
2023/01/10 10:30:54;;;;;;;;;;;12.90;99.90;;;;;;5073949;28;19915;-79
2023/01/10 10:33:38;;;;;;;;;;;13.00;99.90;;;;;;5072723;28;19918;-79
2023/01/10 10:36:14;;;;;;;;;;;13.00;99.90;;;;;;5072717;28;19909;-80
2023/01/10 10:38:42;;;;;;;;;;;13.00;99.90;;;;;;5054807;28;20330;-79
2023/01/10 10:41:24;;;;;;;;;;;13.00;99.90;;;;;;5061073;28;19917;-79
2023/01/10 10:43:51;;;;;;;;;;;13.00;99.90;;;;;;5063341;28;19912;-79
2023/01/10 10:46:18;;;;;;;;;;;13.10;99.90;;;;;;5060167;28;19909;-78
2023/01/10 10:48:56;;;;;;;;;;;13.10;99.90;;;;;;5063780;28;19923;-78
2023/01/10 10:51:36;;;;;;;;;;;13.10;99.90;;;;;;5061382;28;19924;-78
2023/01/10 10:54:02;;;;;;;;;;;13.20;99.90;;;;;;5061066;28;19912;-78
2023/01/10 10:56:28;;;;;;;;;;;13.20;99.90;;;;;;5060927;28;19962;-78
2023/01/10 10:58:55;;;;;;;;;;;13.20;99.90;;;;;;5064114;28;19951;-79
2023/01/10 11:01:21;;;;;;;;;;;13.30;99.90;;;;;;5059665;28;19917;-80
2023/01/10 11:03:49;;;;;;;;;;;13.20;99.90;;;;;;5063063;28;19989;-78
2023/01/10 11:06:16;;;;;;;;;;;13.20;99.90;;;;;;5062419;28;19938;-78
2023/01/10 11:08:43;;;;;;;;;;;13.30;99.90;;;;;;5061525;28;20309;-78
2023/01/10 11:11:19;;;;;;;;;;;13.30;99.90;;;;;;5072373;28;20010;-77
2023/01/10 11:13:47;;;;;;;;;;;13.30;99.90;;;;;;5073111;28;19908;-78
2023/01/10 11:16:23;;;;;;;;;;;13.30;99.90;;;;;;5072047;28;19931;-77
2023/01/10 11:19:08;;;;;;;;;;;13.30;99.90;;;;;;5072038;28;19988;-78
2023/01/10 11:21:34;;;;;;;;;;;13.30;99.90;;;;;;5072554;28;19917;-78
2023/01/10 11:23:59;;;;;;;;;;;13.40;99.90;;;;;;5067536;28;20353;-78
2023/01/10 11:26:35;;;;;;;;;;;13.40;99.90;;;;;;5062037;28;19968;-77
2023/01/10 11:29:12;;;;;;;;;;;13.40;99.90;;;;;;5063443;28;19913;-78
2023/01/10 11:31:38;;;;;;;;;;;13.40;99.90;;;;;;5059161;28;19920;-78
2023/01/10 11:34:05;;;;;;;;;;;13.50;99.90;;;;;;5058808;28;19909;-78
2023/01/10 11:37:00;;;;;;;;;;;13.40;99.90;;;;;;5068733;28;19923;-77
2023/01/10 11:39:26;;;;;;;;;;;13.40;99.90;;;;;;5047728;28;20411;-78
2023/01/10 11:41:57;;;;;;;;;;;13.50;99.90;;;;;;5055234;28;20270;-78
2023/01/10 11:44:22;;;;;;;;;;;13.50;99.90;;;;;;5071743;28;19916;-78
2023/01/10 11:46:48;;;;;;;;;;;13.50;99.90;;;;;;5072010;28;19915;-78
2023/01/10 11:49:19;;;;;;;;;;;13.50;99.90;;;;;;5071573;28;19909;-77
2023/01/10 11:51:46;;;;;;;;;;;13.50;99.90;;;;;;5072023;28;19924;-77
2023/01/10 11:54:16;;;;;;;;;;;13.50;99.90;;;;;;5071506;28;19916;-78
2023/01/10 11:56:46;;;;;;;;;;;13.50;99.90;;;;;;5071220;28;20332;-77
2023/01/10 11:59:14;;;;;;;;;;;13.50;99.90;;;;;;5070726;28;20356;-77
2023/01/10 12:01:42;;;;;;;;;;;13.60;99.90;;;;;;5060846;28;19970;-79
2023/01/10 12:04:15;;;;;;;;;;;13.50;99.90;;;;;;5060259;28;19920;-85
2023/01/10 12:06:44;;;;;;;;;;;13.60;99.90;;;;;;5068056;28;20003;-82
2023/01/10 12:09:28;;;;;;;;;;;13.60;99.90;;;;;;5088569;28;19966;-89
2023/01/10 12:12:00;;;;;;;;;;;13.60;99.90;;;;;;5086868;28;19949;-82
2023/01/10 12:14:26;;;;;;;;;;;13.60;99.90;;;;;;5078339;28;19913;-79
2023/01/10 12:16:57;;;;;;;;;;;13.60;99.90;;;;;;5088251;28;19913;-83
2023/01/10 12:19:23;;;;;;;;;;;13.60;99.90;;;;;;5083539;28;19901;-87
2023/01/10 12:21:50;;;;;;;;;;;13.60;99.90;;;;;;5078863;28;19966;-78
2023/01/10 12:24:15;;;;;;;;;;;13.70;99.90;;;;;;5077861;28;19905;-87
2023/01/10 12:26:41;;;;;;;;;;;13.70;99.90;;;;;;5064115;28;19995;-77
2023/01/10 12:29:10;;;;;;;;;;;13.70;99.90;;;;;;5064665;28;20065;-81
2023/01/10 12:31:38;;;;;;;;;;;13.70;99.90;;;;;;5061524;28;19913;-82
2023/01/10 12:34:06;;;;;;;;;;;13.70;99.90;;;;;;5075052;28;19957;-77
2023/01/10 12:36:32;;;;;;;;;;;13.70;99.90;;;;;;5074614;28;19936;-77
2023/01/10 12:39:03;;;;;;;;;;;13.70;99.90;;;;;;5074199;28;20327;-77
2023/01/10 12:44:45;;;;;;;;;;;13.70;99.90;;;;;;5074963;28;19924;-77
2023/01/10 12:47:23;;;;;;;;;;;13.70;99.90;;;;;;5072607;28;20357;-85
2023/01/10 12:49:55;;;;;;;;;;;13.70;99.90;;;;;;5075023;28;19908;-80
2023/01/10 12:52:32;;;;;;;;;;;13.70;99.90;;;;;;5074909;28;19921;-77
2023/01/10 12:54:57;;;;;;;;;;;13.70;99.90;;;;;;5075108;28;19935;-77
2023/01/10 12:57:37;;;;;;;;;;;13.80;99.90;;;;;;5073470;28;19908;-77
2023/01/10 13:00:04;;;;;;;;;;;13.80;99.90;;;;;;5077110;28;19952;-78
2023/01/10 13:02:37;;;;;;;;;;;13.80;99.90;;;;;;5074413;28;19916;-77
2023/01/10 13:05:03;;;;;;;;;;;13.80;99.90;;;;;;5075025;28;20102;-78
2023/01/10 13:07:32;;;;;;;;;;;13.80;99.90;;;;;;5072695;28;19915;-78
2023/01/10 13:10:00;;;;;;;;;;;13.80;99.90;;;;;;5074356;28;19919;-77
2023/01/10 13:12:33;;;;;;;;;;;13.80;99.90;;;;;;5072131;28;19909;-76
2023/01/10 13:14:58;;;;;;;;;;;13.80;99.90;;;;;;5074366;28;19919;-77
2023/01/10 13:17:26;;;;;;;;;;;13.80;99.90;;;;;;5066851;28;19909;-77
2023/01/10 13:20:11;;;;;;;;;;;13.80;99.90;;;;;;5064212;28;19924;-77
2023/01/10 13:22:36;;;;;;;;;;;13.80;99.90;;;;;;5055967;28;19924;-78
2023/01/10 13:25:02;;;;;;;;;;;13.80;99.90;;;;;;5052573;28;20310;-77
2023/01/10 13:27:34;;;;;;;;;;;13.90;99.90;;;;;;5052449;28;19931;-77
2023/01/10 13:30:01;;;;;;;;;;;13.90;99.90;;;;;;5052374;28;19917;-78
2023/01/10 13:32:31;;;;;;;;;;;13.80;99.90;;;;;;5053527;28;20337;-78
2023/01/10 13:35:13;;;;;;;;;;;13.80;99.90;;;;;;5053931;28;19927;-77
2023/01/10 13:37:40;;;;;;;;;;;13.80;99.90;;;;;;5052464;28;19909;-77
2023/01/10 13:40:06;;;;;;;;;;;13.80;99.90;;;;;;5053451;28;19983;-78
2023/01/10 13:45:24;;;;;;;;;;;13.80;99.90;;;;;;5055127;28;19935;-77
2023/01/10 13:47:53;;;;;;;;;;;13.70;99.90;;;;;;5062865;28;20038;-77
2023/01/10 13:50:21;;;;;;;;;;;13.70;99.90;;;;;;5062212;28;20053;-78
2023/01/10 13:52:59;;;;;;;;;;;13.70;99.90;;;;;;5062881;28;19948;-77
2023/01/10 13:55:24;;;;;;;;;;;13.70;99.90;;;;;;5053021;28;19953;-77
2023/01/10 13:57:51;;;;;;;;;;;13.70;99.90;;;;;;5053386;28;20047;-76
2023/01/10 14:03:06;;;;;;;;;;;13.60;99.90;;;;;;5053508;28;20333;-77
2023/01/10 14:05:31;;;;;;;;;;;13.60;99.90;;;;;;5052928;28;19912;-77
2023/01/10 14:07:57;;;;;;;;;;;13.60;99.90;;;;;;5054033;28;19912;-77
2023/01/10 14:10:24;;;;;;;;;;;13.60;99.90;;;;;;5055799;28;19920;-77
2023/01/10 14:12:58;;;;;;;;;;;13.70;99.90;;;;;;5061441;28;20303;-77
2023/01/10 14:15:26;;;;;;;;;;;13.60;99.90;;;;;;5063635;28;20008;-80
2023/01/10 14:17:59;;;;;;;;;;;13.70;99.90;;;;;;5073098;28;19908;-79
2023/01/10 14:20:25;;;;;;;;;;;13.60;99.90;;;;;;5071113;28;19955;-78
2023/01/10 14:23:08;;;;;;;;;;;13.60;99.90;;;;;;5063134;28;20000;-78
2023/01/10 14:25:34;;;;;;;;;;;13.60;99.90;;;;;;5064685;28;19992;-76
2023/01/10 14:28:01;;;;;;;;;;;13.60;99.90;;;;;;5055282;28;19916;-77
2023/01/10 14:30:31;;;;;;;;;;;13.60;99.90;;;;;;5053146;28;19999;-77
2023/01/10 14:33:00;;;;;;;;;;;13.60;99.90;;;;;;5053634;28;19926;-77
2023/01/10 14:35:37;;;;;;;;;;;13.60;99.90;;;;;;5052647;28;19909;-77
2023/01/10 14:38:02;;;;;;;;;;;13.50;99.90;;;;;;5053224;28;19999;-77
2023/01/10 14:40:41;;;;;;;;;;;13.50;99.90;;;;;;5051146;28;19998;-76
2023/01/10 14:43:10;;;;;;;;;;;13.50;99.90;;;;;;5051722;28;20273;-78
2023/01/10 14:45:42;;;;;;;;;;;13.50;99.90;;;;;;5051936;28;19913;-78
2023/01/10 14:48:26;;;;;;;;;;;13.50;99.90;;;;;;5052575;28;20286;-79